createdAt,value
2023-01-31T00:01:56.913Z,61.43
2023-01-31T00:04:58.483Z,61.67
2023-01-31T00:08:01.568Z,61.79
2023-01-31T00:11:03.180Z,61.91
2023-01-31T00:14:06.441Z,62.00
2023-01-31T00:17:07.987Z,61.62
2023-01-31T00:20:10.841Z,61.66
2023-01-31T00:23:12.385Z,61.65
2023-01-31T00:26:22.868Z,61.88
2023-01-31T00:29:24.734Z,61.79
2023-01-31T00:32:27.022Z,61.86
2023-01-31T00:35:28.653Z,61.70
2023-01-31T00:38:30.369Z,61.62
2023-01-31T00:41:32.141Z,61.87
2023-01-31T00:44:33.679Z,61.67
2023-01-31T00:47:35.810Z,61.78
2023-01-31T00:50:38.102Z,61.80
2023-01-31T00:53:40.062Z,61.92
2023-01-31T00:56:41.613Z,61.73
2023-01-31T00:59:43.155Z,62.02
2023-01-31T01:02:44.707Z,61.71
2023-01-31T01:05:46.257Z,61.93
2023-01-31T01:08:48.170Z,62.10
2023-01-31T01:11:49.851Z,61.84
2023-01-31T01:14:51.448Z,62.19
2023-01-31T01:17:53.093Z,61.84
2023-01-31T01:20:54.623Z,61.96
2023-01-31T01:24:00.187Z,62.12
2023-01-31T01:27:01.827Z,62.03
2023-01-31T01:30:04.683Z,62.07
2023-01-31T01:33:06.261Z,62.00
2023-01-31T01:36:13.387Z,62.06
2023-01-31T01:39:15.005Z,62.10
2023-01-31T01:42:22.769Z,62.01
2023-01-31T01:45:24.549Z,62.13
2023-01-31T01:48:27.808Z,62.08
2023-01-31T01:51:32.687Z,61.73
2023-01-31T01:54:40.676Z,61.82
2023-01-31T01:57:45.029Z,61.81
2023-01-31T02:00:47.577Z,61.75
2023-01-31T02:03:51.759Z,61.99
2023-01-31T02:06:53.963Z,61.80
2023-01-31T02:10:09.851Z,61.85
2023-01-31T02:13:12.001Z,61.91
2023-01-31T02:16:13.847Z,62.02
2023-01-31T02:19:35.824Z,61.90
2023-01-31T02:23:08.018Z,62.24
2023-01-31T02:26:28.031Z,62.14
2023-01-31T02:29:53.709Z,62.12
2023-01-31T02:33:07.444Z,61.94
2023-01-31T02:36:08.923Z,61.97
2023-01-31T02:39:44.028Z,62.07
2023-01-31T02:43:12.581Z,62.04
2023-01-31T02:46:17.793Z,61.97
2023-01-31T02:49:34.903Z,62.26
2023-01-31T02:53:07.207Z,61.85
2023-01-31T02:56:26.077Z,62.31
2023-01-31T02:59:31.717Z,62.19
2023-01-31T03:02:33.322Z,62.32
2023-01-31T03:05:34.933Z,62.30
2023-01-31T03:08:38.807Z,62.36
2023-01-31T03:11:59.277Z,62.04
2023-01-31T03:15:11.601Z,62.03
2023-01-31T03:18:18.710Z,62.12
2023-01-31T03:21:30.712Z,62.01
2023-01-31T03:24:33.610Z,62.02
2023-01-31T03:27:36.323Z,62.30
2023-01-31T03:30:48.317Z,62.35
2023-01-31T03:33:57.970Z,62.38
2023-01-31T03:37:23.188Z,62.04
2023-01-31T03:40:30.583Z,62.03
2023-01-31T03:43:39.728Z,62.44
2023-01-31T03:46:46.353Z,62.19
2023-01-31T03:49:51.664Z,62.46
2023-01-31T03:53:17.222Z,62.18
2023-01-31T03:56:27.957Z,62.44
2023-01-31T03:59:35.496Z,62.46
2023-01-31T04:02:38.175Z,62.29
2023-01-31T04:05:40.936Z,62.14
2023-01-31T04:08:43.485Z,62.39
2023-01-31T04:11:48.930Z,62.15
2023-01-31T04:14:50.492Z,62.15
2023-01-31T04:17:52.058Z,62.19
2023-01-31T04:20:53.666Z,62.22
2023-01-31T04:23:55.249Z,62.45
2023-01-31T04:26:56.768Z,62.60
2023-01-31T04:29:58.381Z,62.43
2023-01-31T04:32:59.902Z,62.31
2023-01-31T04:36:01.648Z,62.45
2023-01-31T04:39:03.700Z,62.52
2023-01-31T04:42:05.278Z,62.51
2023-01-31T04:45:07.992Z,62.29
2023-01-31T04:48:10.021Z,62.24
2023-01-31T04:51:11.971Z,62.53
2023-01-31T04:54:13.739Z,62.18
2023-01-31T04:57:15.293Z,62.33
2023-01-31T05:00:17.420Z,62.30
2023-01-31T05:03:19.007Z,62.09
2023-01-31T05:06:20.789Z,62.24
2023-01-31T05:09:22.892Z,62.23
2023-01-31T05:12:24.460Z,62.40
2023-01-31T05:15:26.145Z,62.30
2023-01-31T05:18:27.692Z,62.25
2023-01-31T05:21:29.249Z,62.23
2023-01-31T05:24:32.964Z,62.20
2023-01-31T05:27:34.492Z,62.33
2023-01-31T05:30:37.306Z,62.41
2023-01-31T05:33:39.226Z,62.33
2023-01-31T05:36:44.641Z,62.35
2023-01-31T05:39:46.169Z,62.31
2023-01-31T05:42:55.405Z,62.42
2023-01-31T05:45:56.962Z,63.25
2023-01-31T05:48:58.511Z,62.92
2023-01-31T05:52:00.881Z,62.40
2023-01-31T05:55:02.835Z,62.12
2023-01-31T05:58:04.446Z,62.22
2023-01-31T06:01:06.039Z,62.21
2023-01-31T06:04:07.619Z,62.24
2023-01-31T06:07:09.194Z,62.11
2023-01-31T06:10:11.905Z,62.42
2023-01-31T06:13:13.478Z,62.41
2023-01-31T06:16:15.010Z,62.07
2023-01-31T06:19:16.614Z,62.37
2023-01-31T06:22:19.453Z,62.20
2023-01-31T06:25:21.413Z,62.18
2023-01-31T06:28:23.424Z,62.29
2023-01-31T06:31:25.311Z,62.28
2023-01-31T06:34:26.972Z,62.36
2023-01-31T06:37:28.555Z,62.24
2023-01-31T06:40:30.916Z,62.27
2023-01-31T06:43:32.847Z,62.35
2023-01-31T06:46:34.618Z,62.38
2023-01-31T06:49:36.360Z,62.21
2023-01-31T06:52:38.426Z,62.08
2023-01-31T06:55:40.121Z,62.10
2023-01-31T06:58:41.867Z,62.26
2023-01-31T07:01:43.444Z,62.09
2023-01-31T07:04:45.084Z,62.17
2023-01-31T07:07:47.483Z,62.16
2023-01-31T07:10:49.146Z,61.87
2023-01-31T07:13:50.746Z,61.98
2023-01-31T07:16:52.851Z,61.90
2023-01-31T07:19:54.525Z,62.33
2023-01-31T07:22:57.157Z,62.17
2023-01-31T07:25:58.746Z,62.52
2023-01-31T07:29:00.390Z,62.14
2023-01-31T07:32:02.013Z,62.23
2023-01-31T07:35:03.697Z,62.58
2023-01-31T07:38:05.267Z,62.38
2023-01-31T07:41:08.588Z,62.22
2023-01-31T07:44:12.941Z,62.47
2023-01-31T07:47:14.554Z,62.44
2023-01-31T07:50:16.243Z,62.45
2023-01-31T07:53:18.590Z,62.54
2023-01-31T07:56:21.865Z,62.70
2023-01-31T07:59:23.500Z,62.26
2023-01-31T08:02:43.380Z,62.33
2023-01-31T08:05:48.303Z,63.50
2023-01-31T08:08:49.872Z,63.48
2023-01-31T08:11:52.165Z,62.99
2023-01-31T08:14:53.671Z,62.83
2023-01-31T08:17:55.931Z,62.54
2023-01-31T08:20:58.664Z,62.21
2023-01-31T08:24:00.280Z,62.08
2023-01-31T08:27:01.904Z,62.13
2023-01-31T08:30:04.437Z,62.16
2023-01-31T08:33:06.042Z,62.26
2023-01-31T08:36:18.817Z,62.68
2023-01-31T08:39:20.427Z,62.42
2023-01-31T08:42:22.190Z,62.36
2023-01-31T08:45:24.331Z,62.61
2023-01-31T08:48:25.917Z,62.61
2023-01-31T08:51:27.993Z,62.44
2023-01-31T08:54:30.221Z,62.63
2023-01-31T08:57:32.414Z,62.84
2023-01-31T09:00:34.366Z,62.57
2023-01-31T09:03:36.378Z,62.73
2023-01-31T09:06:37.968Z,62.77
2023-01-31T09:09:39.600Z,62.54
2023-01-31T09:12:41.187Z,62.54
2023-01-31T09:15:42.738Z,62.50
2023-01-31T09:18:44.381Z,62.39
2023-01-31T09:21:47.267Z,62.55
2023-01-31T09:24:48.938Z,62.42
2023-01-31T09:27:53.178Z,62.86
2023-01-31T09:30:54.864Z,62.86
2023-01-31T09:33:56.454Z,62.74
2023-01-31T09:36:58.221Z,62.70
2023-01-31T09:39:59.726Z,62.77
2023-01-31T09:43:03.092Z,62.79
2023-01-31T09:46:11.215Z,62.57
2023-01-31T09:49:21.086Z,62.59
2023-01-31T09:52:23.090Z,62.60
2023-01-31T09:55:48.806Z,62.78
2023-01-31T09:58:57.786Z,62.84
2023-01-31T10:02:14.320Z,62.76
2023-01-31T10:05:22.055Z,62.70
2023-01-31T10:08:44.211Z,62.64
2023-01-31T10:11:58.022Z,62.75
2023-01-31T10:15:05.852Z,62.61
2023-01-31T10:18:28.047Z,62.70
2023-01-31T10:21:38.772Z,62.53
2023-01-31T10:24:49.203Z,62.55
2023-01-31T10:27:57.432Z,62.91
2023-01-31T10:31:05.760Z,62.79
2023-01-31T10:34:17.614Z,62.81
2023-01-31T10:37:37.663Z,62.78
2023-01-31T10:40:43.053Z,62.74
2023-01-31T10:43:57.614Z,62.65
2023-01-31T10:47:00.600Z,62.71
2023-01-31T10:50:14.581Z,62.73
2023-01-31T10:53:43.973Z,62.89
2023-01-31T10:56:47.992Z,62.86
2023-01-31T10:59:50.518Z,63.02
2023-01-31T11:02:52.356Z,63.29
2023-01-31T11:05:58.176Z,63.19
2023-01-31T11:09:01.936Z,62.86
2023-01-31T11:12:06.693Z,62.80
2023-01-31T11:15:16.993Z,62.58
2023-01-31T11:18:46.157Z,62.63
2023-01-31T11:21:50.770Z,62.73
2023-01-31T11:24:53.873Z,62.88
2023-01-31T11:28:03.696Z,62.79
2023-01-31T11:31:15.852Z,62.98
2023-01-31T11:34:24.816Z,62.98
2023-01-31T11:37:27.010Z,63.03
2023-01-31T11:40:34.916Z,62.92
2023-01-31T11:43:36.614Z,63.03
2023-01-31T11:47:12.826Z,63.14
2023-01-31T11:50:22.300Z,62.95
2023-01-31T11:53:47.865Z,63.07
2023-01-31T11:56:49.748Z,62.95
2023-01-31T11:59:55.062Z,63.12
2023-01-31T12:03:05.224Z,63.04
2023-01-31T12:06:10.664Z,63.05
2023-01-31T12:09:21.983Z,63.23
2023-01-31T12:12:33.992Z,63.12
2023-01-31T12:15:35.643Z,63.11
2023-01-31T12:18:40.013Z,63.15
2023-01-31T12:21:44.554Z,63.20
2023-01-31T12:24:51.970Z,63.19
2023-01-31T12:28:14.995Z,63.17
2023-01-31T12:31:32.587Z,63.08
2023-01-31T12:35:00.102Z,63.13
2023-01-31T12:38:32.072Z,63.06
2023-01-31T12:41:41.411Z,63.16
2023-01-31T12:44:48.374Z,63.26
2023-01-31T12:47:52.839Z,63.37
2023-01-31T12:51:03.693Z,63.35
2023-01-31T12:54:08.062Z,63.30
2023-01-31T12:57:43.377Z,63.39
2023-01-31T13:00:44.892Z,63.27
2023-01-31T13:04:20.776Z,63.41
2023-01-31T13:07:36.074Z,63.19
2023-01-31T13:10:51.986Z,63.52
2023-01-31T13:14:03.816Z,63.33
2023-01-31T13:17:10.652Z,63.34
2023-01-31T13:20:12.151Z,63.29
2023-01-31T13:23:22.307Z,63.36
2023-01-31T13:26:35.142Z,63.47
2023-01-31T13:29:49.234Z,63.32
2023-01-31T13:32:55.186Z,63.38
2023-01-31T13:36:19.159Z,63.46
2023-01-31T13:39:27.550Z,63.41
2023-01-31T13:42:29.900Z,63.58
2023-01-31T13:45:43.178Z,63.48
2023-01-31T13:48:56.130Z,63.45
2023-01-31T13:52:01.992Z,64.08
2023-01-31T13:55:09.809Z,63.65
2023-01-31T13:58:39.603Z,63.50
2023-01-31T14:01:48.369Z,63.52
2023-01-31T14:04:50.085Z,63.47
2023-01-31T14:08:26.285Z,63.42
2023-01-31T14:11:27.779Z,63.53
2023-01-31T14:14:41.779Z,63.41
2023-01-31T14:17:58.483Z,63.45
2023-01-31T14:21:28.881Z,63.42
2023-01-31T14:24:56.621Z,63.40
2023-01-31T14:27:58.104Z,63.29
2023-01-31T14:31:12.713Z,63.47
2023-01-31T14:34:21.157Z,63.21
2023-01-31T14:37:47.458Z,63.42
2023-01-31T14:41:16.855Z,63.35
2023-01-31T14:44:18.547Z,63.27
2023-01-31T14:47:42.084Z,63.35
2023-01-31T14:51:01.817Z,63.43
2023-01-31T14:54:27.588Z,63.38
2023-01-31T14:57:43.562Z,63.45
2023-01-31T15:00:54.792Z,63.26
2023-01-31T15:04:01.159Z,63.33
2023-01-31T15:07:02.800Z,63.34
2023-01-31T15:10:05.162Z,63.39
2023-01-31T15:13:32.629Z,63.33
2023-01-31T15:16:37.838Z,63.83
2023-01-31T15:20:05.450Z,63.43
2023-01-31T15:23:12.014Z,63.40
2023-01-31T15:26:16.309Z,63.19
2023-01-31T15:29:27.519Z,63.13
2023-01-31T15:32:42.773Z,63.04
2023-01-31T15:35:55.660Z,63.29
2023-01-31T15:39:01.501Z,63.08
2023-01-31T15:42:22.416Z,63.17
2023-01-31T15:45:26.424Z,63.12
2023-01-31T15:48:28.029Z,63.11
2023-01-31T15:51:29.739Z,63.10
2023-01-31T15:54:31.475Z,63.34
2023-01-31T15:57:41.569Z,63.14
2023-01-31T16:00:44.640Z,63.01
2023-01-31T16:03:58.467Z,63.02
2023-01-31T16:07:00.002Z,62.99
2023-01-31T16:10:02.113Z,62.92
2023-01-31T16:13:04.043Z,62.90
2023-01-31T16:16:10.468Z,62.81
2023-01-31T16:19:25.577Z,62.71
2023-01-31T16:22:30.642Z,62.79
2023-01-31T16:25:38.484Z,62.75
2023-01-31T16:29:06.143Z,62.87
2023-01-31T16:32:25.359Z,62.78
2023-01-31T16:35:29.246Z,62.75
2023-01-31T16:38:31.090Z,62.70
2023-01-31T16:41:50.592Z,62.62
2023-01-31T16:44:52.453Z,62.69
2023-01-31T16:47:55.290Z,62.67
2023-01-31T16:50:59.287Z,62.63
2023-01-31T16:54:12.813Z,62.66
2023-01-31T16:57:44.249Z,62.57
2023-01-31T17:00:46.076Z,62.61
2023-01-31T17:04:26.262Z,62.52
2023-01-31T17:07:32.404Z,62.45
2023-01-31T17:10:35.308Z,62.53
2023-01-31T17:13:36.869Z,62.68
2023-01-31T17:16:38.803Z,62.58
2023-01-31T17:19:40.555Z,62.48
2023-01-31T17:22:45.598Z,62.64
2023-01-31T17:25:51.934Z,62.43
2023-01-31T17:29:01.566Z,62.38
2023-01-31T17:32:04.065Z,62.44
2023-01-31T17:35:26.263Z,62.39
2023-01-31T17:38:27.858Z,62.32
2023-01-31T17:41:30.516Z,62.47
2023-01-31T17:44:32.178Z,62.27
2023-01-31T17:47:33.726Z,62.39
2023-01-31T17:50:35.273Z,62.31
2023-01-31T17:53:47.886Z,62.36
2023-01-31T17:56:52.281Z,62.24
2023-01-31T17:59:54.397Z,62.19
2023-01-31T18:02:56.073Z,62.27
2023-01-31T18:06:04.170Z,62.21
2023-01-31T18:09:08.572Z,62.20
2023-01-31T18:12:10.129Z,62.13
2023-01-31T18:15:12.068Z,62.22
2023-01-31T18:18:13.598Z,62.06
2023-01-31T18:21:17.384Z,62.10
2023-01-31T18:24:18.935Z,62.14
2023-01-31T18:27:20.570Z,61.96
2023-01-31T18:30:22.212Z,62.03
2023-01-31T18:33:24.046Z,61.97
2023-01-31T18:36:25.744Z,62.13
2023-01-31T18:39:27.312Z,61.96
2023-01-31T18:42:28.888Z,61.92
2023-01-31T18:45:30.430Z,62.03
2023-01-31T18:48:33.378Z,61.92
2023-01-31T18:51:34.962Z,61.98
2023-01-31T18:54:37.643Z,62.03
2023-01-31T18:57:39.435Z,62.08
2023-01-31T19:00:41.011Z,62.12
2023-01-31T19:03:43.403Z,62.13
2023-01-31T19:06:46.180Z,61.90
2023-01-31T19:09:47.714Z,62.05
2023-01-31T19:12:49.265Z,62.26
2023-01-31T19:15:50.817Z,62.33
2023-01-31T19:18:52.982Z,62.01
2023-01-31T19:21:54.911Z,62.05
2023-01-31T19:24:59.362Z,61.91
2023-01-31T19:28:01.165Z,61.86
2023-01-31T19:31:08.259Z,61.76
2023-01-31T19:34:10.181Z,61.74
2023-01-31T19:37:11.714Z,61.85
2023-01-31T19:40:13.673Z,61.87
2023-01-31T19:43:15.221Z,61.80
2023-01-31T19:46:17.773Z,61.73
2023-01-31T19:49:19.640Z,61.69
2023-01-31T19:52:21.235Z,61.93
2023-01-31T19:55:23.213Z,61.67
2023-01-31T19:58:31.297Z,61.80
2023-01-31T20:01:33.541Z,61.49
2023-01-31T20:04:35.129Z,61.84
2023-01-31T20:07:37.654Z,61.82
2023-01-31T20:10:39.290Z,61.83
2023-01-31T20:13:42.098Z,61.66
2023-01-31T20:16:43.647Z,61.76
2023-01-31T20:19:45.833Z,61.79
2023-01-31T20:22:47.408Z,61.77
2023-01-31T20:25:50.371Z,61.61
2023-01-31T20:28:51.989Z,61.59
2023-01-31T20:31:53.610Z,61.72
2023-01-31T20:34:55.216Z,61.80
2023-01-31T20:37:56.721Z,61.63
2023-01-31T20:40:58.276Z,61.66
2023-01-31T20:43:59.997Z,61.79
2023-01-31T20:47:01.584Z,61.64
2023-01-31T20:50:03.282Z,61.77
2023-01-31T20:53:04.894Z,61.58
2023-01-31T20:56:10.881Z,61.52
2023-01-31T20:59:12.493Z,61.61
2023-01-31T21:02:14.265Z,61.71
2023-01-31T21:05:17.744Z,61.58
2023-01-31T21:08:20.087Z,61.65
2023-01-31T21:11:21.990Z,61.79
2023-01-31T21:14:23.514Z,61.60
2023-01-31T21:17:39.150Z,61.57
2023-01-31T21:20:41.748Z,61.72
2023-01-31T21:23:43.308Z,61.77
2023-01-31T21:26:44.900Z,61.79
2023-01-31T21:29:46.678Z,61.76
2023-01-31T21:32:48.238Z,61.81
2023-01-31T21:35:49.752Z,61.63
2023-01-31T21:38:52.956Z,61.74
2023-01-31T21:42:12.744Z,61.71
2023-01-31T21:45:14.436Z,61.59
2023-01-31T21:48:32.061Z,61.61
2023-01-31T21:51:33.799Z,61.60
2023-01-31T21:54:35.713Z,61.58
2023-01-31T21:57:37.520Z,61.63
2023-01-31T22:00:39.126Z,61.66
2023-01-31T22:03:44.976Z,61.49
2023-01-31T22:06:48.585Z,61.63
2023-01-31T22:09:50.137Z,61.55
2023-01-31T22:12:51.666Z,61.57
2023-01-31T22:15:53.357Z,61.53
2023-01-31T22:18:55.145Z,61.54
2023-01-31T22:21:58.821Z,61.54
2023-01-31T22:25:00.384Z,61.48
2023-01-31T22:28:01.948Z,61.60
2023-01-31T22:31:04.833Z,61.63
2023-01-31T22:34:07.637Z,61.55
2023-01-31T22:37:09.271Z,61.50
2023-01-31T22:40:11.490Z,61.55
2023-01-31T22:43:15.760Z,61.40
2023-01-31T22:46:20.416Z,61.56
2023-01-31T22:49:21.987Z,61.55
2023-01-31T22:52:23.516Z,61.45
2023-01-31T22:55:25.072Z,61.54
2023-01-31T22:58:26.611Z,61.53
2023-01-31T23:01:31.032Z,61.53
2023-01-31T23:04:32.646Z,61.37
2023-01-31T23:07:34.268Z,61.50
2023-01-31T23:10:35.958Z,61.68
2023-01-31T23:13:38.410Z,61.67
2023-01-31T23:16:58.325Z,61.70
2023-01-31T23:20:00.176Z,61.51
2023-01-31T23:23:01.796Z,61.35
2023-01-31T23:26:04.534Z,61.64
2023-01-31T23:29:06.608Z,61.77
2023-01-31T23:32:08.236Z,61.66
2023-01-31T23:35:10.233Z,61.52
2023-01-31T23:38:11.938Z,61.48
2023-01-31T23:41:13.485Z,61.68
2023-01-31T23:44:15.157Z,61.68
2023-01-31T23:47:16.894Z,61.44
2023-01-31T23:50:18.624Z,61.71
2023-01-31T23:53:20.191Z,61.54
2023-01-31T23:56:21.768Z,61.71
2023-01-31T23:59:23.390Z,61.49
